sensor_id;sensor_type;location;lat;lon;timestamp;P1;durP1;ratioP1;P2;durP2;ratioP2
27428;SDS011;14881;48.092;11.574;2023-07-29T00:00:44;8.07;;;4.13;;
27428;SDS011;14881;48.092;11.574;2023-07-29T00:03:10;5.40;;;4.40;;
27428;SDS011;14881;48.092;11.574;2023-07-29T00:05:37;4.65;;;3.50;;
27428;SDS011;14881;48.092;11.574;2023-07-29T00:08:04;6.25;;;4.07;;
27428;SDS011;14881;48.092;11.574;2023-07-29T00:10:32;5.35;;;4.43;;
27428;SDS011;14881;48.092;11.574;2023-07-29T00:12:58;4.20;;;3.78;;
27428;SDS011;14881;48.092;11.574;2023-07-29T00:15:25;6.70;;;4.07;;
27428;SDS011;14881;48.092;11.574;2023-07-29T00:17:51;5.78;;;4.57;;
27428;SDS011;14881;48.092;11.574;2023-07-29T00:20:18;6.78;;;4.43;;
27428;SDS011;14881;48.092;11.574;2023-07-29T00:22:44;7.30;;;3.92;;
27428;SDS011;14881;48.092;11.574;2023-07-29T00:25:11;10.35;;;4.35;;
27428;SDS011;14881;48.092;11.574;2023-07-29T00:27:38;4.85;;;3.88;;
27428;SDS011;14881;48.092;11.574;2023-07-29T00:30:04;5.03;;;4.43;;
27428;SDS011;14881;48.092;11.574;2023-07-29T00:32:32;6.15;;;3.42;;
27428;SDS011;14881;48.092;11.574;2023-07-29T00:34:58;4.90;;;4.03;;
27428;SDS011;14881;48.092;11.574;2023-07-29T00:37:27;4.15;;;3.70;;
27428;SDS011;14881;48.092;11.574;2023-07-29T00:39:53;5.22;;;3.42;;
27428;SDS011;14881;48.092;11.574;2023-07-29T00:42:20;5.68;;;3.58;;
27428;SDS011;14881;48.092;11.574;2023-07-29T00:44:47;4.28;;;3.70;;
27428;SDS011;14881;48.092;11.574;2023-07-29T00:47:13;4.50;;;3.90;;
27428;SDS011;14881;48.092;11.574;2023-07-29T00:49:41;4.25;;;3.65;;
27428;SDS011;14881;48.092;11.574;2023-07-29T00:52:09;5.70;;;4.00;;
27428;SDS011;14881;48.092;11.574;2023-07-29T00:54:37;5.95;;;4.10;;
27428;SDS011;14881;48.092;11.574;2023-07-29T00:57:04;6.32;;;4.43;;
27428;SDS011;14881;48.092;11.574;2023-07-29T00:59:33;4.50;;;3.72;;
27428;SDS011;14881;48.092;11.574;2023-07-29T01:02:01;6.10;;;4.32;;
27428;SDS011;14881;48.092;11.574;2023-07-29T01:04:28;6.50;;;4.05;;
27428;SDS011;14881;48.092;11.574;2023-07-29T01:06:57;5.90;;;3.90;;
27428;SDS011;14881;48.092;11.574;2023-07-29T01:09:30;6.30;;;4.38;;
27428;SDS011;14881;48.092;11.574;2023-07-29T01:12:12;5.70;;;4.20;;
27428;SDS011;14881;48.092;11.574;2023-07-29T01:14:47;4.20;;;3.80;;
27428;SDS011;14881;48.092;11.574;2023-07-29T01:17:22;5.13;;;4.57;;
27428;SDS011;14881;48.092;11.574;2023-07-29T01:19:55;4.60;;;3.75;;
27428;SDS011;14881;48.092;11.574;2023-07-29T01:22:27;4.70;;;4.20;;
27428;SDS011;14881;48.092;11.574;2023-07-29T01:24:55;4.88;;;3.70;;
27428;SDS011;14881;48.092;11.574;2023-07-29T01:27:22;7.07;;;3.47;;
27428;SDS011;14881;48.092;11.574;2023-07-29T01:29:48;5.88;;;3.83;;
27428;SDS011;14881;48.092;11.574;2023-07-29T01:32:17;7.47;;;3.75;;
27428;SDS011;14881;48.092;11.574;2023-07-29T01:34:52;6.32;;;3.60;;
27428;SDS011;14881;48.092;11.574;2023-07-29T01:37:26;8.20;;;3.53;;
27428;SDS011;14881;48.092;11.574;2023-07-29T01:39:55;4.70;;;3.50;;
27428;SDS011;14881;48.092;11.574;2023-07-29T01:42:24;4.88;;;3.83;;
27428;SDS011;14881;48.092;11.574;2023-07-29T01:44:55;4.60;;;3.63;;
27428;SDS011;14881;48.092;11.574;2023-07-29T01:47:22;5.93;;;3.90;;
27428;SDS011;14881;48.092;11.574;2023-07-29T01:49:48;4.40;;;3.35;;
27428;SDS011;14881;48.092;11.574;2023-07-29T01:52:14;7.72;;;3.63;;
27428;SDS011;14881;48.092;11.574;2023-07-29T01:54:41;4.68;;;3.70;;
27428;SDS011;14881;48.092;11.574;2023-07-29T01:57:08;4.45;;;3.60;;
27428;SDS011;14881;48.092;11.574;2023-07-29T01:59:34;6.60;;;3.83;;
27428;SDS011;14881;48.092;11.574;2023-07-29T02:02:00;5.72;;;3.72;;
27428;SDS011;14881;48.092;11.574;2023-07-29T02:04:27;4.93;;;3.40;;
27428;SDS011;14881;48.092;11.574;2023-07-29T02:06:54;5.22;;;4.03;;
27428;SDS011;14881;48.092;11.574;2023-07-29T02:09:20;4.82;;;3.90;;
27428;SDS011;14881;48.092;11.574;2023-07-29T02:11:47;6.45;;;4.10;;
27428;SDS011;14881;48.092;11.574;2023-07-29T02:14:14;4.45;;;4.05;;
27428;SDS011;14881;48.092;11.574;2023-07-29T02:16:40;6.13;;;4.15;;
27428;SDS011;14881;48.092;11.574;2023-07-29T02:19:07;5.18;;;3.78;;
27428;SDS011;14881;48.092;11.574;2023-07-29T02:21:33;4.65;;;4.03;;
27428;SDS011;14881;48.092;11.574;2023-07-29T02:24:00;4.38;;;3.97;;
27428;SDS011;14881;48.092;11.574;2023-07-29T02:26:26;5.53;;;4.18;;
27428;SDS011;14881;48.092;11.574;2023-07-29T02:28:52;6.93;;;4.18;;
27428;SDS011;14881;48.092;11.574;2023-07-29T02:31:20;8.65;;;4.45;;
27428;SDS011;14881;48.092;11.574;2023-07-29T02:33:48;5.47;;;3.70;;
27428;SDS011;14881;48.092;11.574;2023-07-29T02:36:15;5.30;;;4.00;;
27428;SDS011;14881;48.092;11.574;2023-07-29T02:38:42;4.80;;;3.75;;
27428;SDS011;14881;48.092;11.574;2023-07-29T02:41:08;4.72;;;3.65;;
27428;SDS011;14881;48.092;11.574;2023-07-29T02:43:35;6.10;;;3.97;;
27428;SDS011;14881;48.092;11.574;2023-07-29T02:46:02;6.80;;;4.05;;
27428;SDS011;14881;48.092;11.574;2023-07-29T02:48:29;4.53;;;3.97;;
27428;SDS011;14881;48.092;11.574;2023-07-29T02:50:56;4.30;;;3.90;;
27428;SDS011;14881;48.092;11.574;2023-07-29T02:53:22;5.32;;;4.07;;
27428;SDS011;14881;48.092;11.574;2023-07-29T02:55:49;5.00;;;3.60;;
27428;SDS011;14881;48.092;11.574;2023-07-29T02:58:15;4.57;;;3.85;;
27428;SDS011;14881;48.092;11.574;2023-07-29T03:00:41;4.65;;;3.50;;
27428;SDS011;14881;48.092;11.574;2023-07-29T03:03:09;6.03;;;4.03;;
27428;SDS011;14881;48.092;11.574;2023-07-29T03:05:36;4.30;;;3.90;;
27428;SDS011;14881;48.092;11.574;2023-07-29T03:08:03;4.13;;;3.60;;
27428;SDS011;14881;48.092;11.574;2023-07-29T03:10:30;7.22;;;4.28;;
27428;SDS011;14881;48.092;11.574;2023-07-29T03:12:56;6.53;;;3.80;;
27428;SDS011;14881;48.092;11.574;2023-07-29T03:15:23;5.78;;;3.65;;
27428;SDS011;14881;48.092;11.574;2023-07-29T03:17:49;5.43;;;3.47;;
27428;SDS011;14881;48.092;11.574;2023-07-29T03:20:16;4.65;;;3.40;;
27428;SDS011;14881;48.092;11.574;2023-07-29T03:22:44;4.63;;;3.50;;
27428;SDS011;14881;48.092;11.574;2023-07-29T03:25:10;4.05;;;3.55;;
27428;SDS011;14881;48.092;11.574;2023-07-29T03:27:37;4.15;;;3.55;;
27428;SDS011;14881;48.092;11.574;2023-07-29T03:30:03;5.50;;;3.30;;
27428;SDS011;14881;48.092;11.574;2023-07-29T03:32:30;3.97;;;3.22;;
27428;SDS011;14881;48.092;11.574;2023-07-29T03:34:57;3.92;;;3.53;;
27428;SDS011;14881;48.092;11.574;2023-07-29T03:37:24;5.75;;;3.10;;
27428;SDS011;14881;48.092;11.574;2023-07-29T03:39:51;4.88;;;3.10;;
27428;SDS011;14881;48.092;11.574;2023-07-29T03:42:17;5.57;;;3.20;;
27428;SDS011;14881;48.092;11.574;2023-07-29T03:44:44;3.53;;;2.90;;
27428;SDS011;14881;48.092;11.574;2023-07-29T03:47:10;3.85;;;3.40;;
27428;SDS011;14881;48.092;11.574;2023-07-29T03:49:36;5.32;;;3.67;;
27428;SDS011;14881;48.092;11.574;2023-07-29T03:52:03;4.43;;;3.03;;
27428;SDS011;14881;48.092;11.574;2023-07-29T03:54:30;3.90;;;3.53;;
27428;SDS011;14881;48.092;11.574;2023-07-29T03:56:57;3.88;;;3.08;;
27428;SDS011;14881;48.092;11.574;2023-07-29T03:59:23;4.03;;;3.17;;
27428;SDS011;14881;48.092;11.574;2023-07-29T04:01:50;3.97;;;3.47;;
27428;SDS011;14881;48.092;11.574;2023-07-29T04:04:16;3.67;;;3.17;;
27428;SDS011;14881;48.092;11.574;2023-07-29T04:06:42;5.70;;;3.25;;
27428;SDS011;14881;48.092;11.574;2023-07-29T04:09:09;3.60;;;3.30;;
27428;SDS011;14881;48.092;11.574;2023-07-29T04:11:35;3.38;;;2.85;;
27428;SDS011;14881;48.092;11.574;2023-07-29T04:14:02;4.15;;;3.00;;
27428;SDS011;14881;48.092;11.574;2023-07-29T04:16:29;6.20;;;3.22;;
27428;SDS011;14881;48.092;11.574;2023-07-29T04:18:55;5.65;;;3.30;;
27428;SDS011;14881;48.092;11.574;2023-07-29T04:21:21;8.18;;;3.25;;
27428;SDS011;14881;48.092;11.574;2023-07-29T04:23:48;3.92;;;2.92;;
27428;SDS011;14881;48.092;11.574;2023-07-29T04:26:14;4.18;;;3.33;;
27428;SDS011;14881;48.092;11.574;2023-07-29T04:28:41;3.53;;;3.08;;
27428;SDS011;14881;48.092;11.574;2023-07-29T04:31:09;3.90;;;2.95;;
27428;SDS011;14881;48.092;11.574;2023-07-29T04:33:35;4.40;;;3.45;;
27428;SDS011;14881;48.092;11.574;2023-07-29T04:36:03;5.45;;;3.63;;
27428;SDS011;14881;48.092;11.574;2023-07-29T04:38:30;5.07;;;3.72;;
27428;SDS011;14881;48.092;11.574;2023-07-29T04:40:58;5.72;;;3.28;;
27428;SDS011;14881;48.092;11.574;2023-07-29T04:43:26;3.47;;;3.03;;
27428;SDS011;14881;48.092;11.574;2023-07-29T04:45:53;4.28;;;3.40;;
27428;SDS011;14881;48.092;11.574;2023-07-29T04:48:20;4.80;;;2.85;;
27428;SDS011;14881;48.092;11.574;2023-07-29T04:50:47;3.40;;;3.10;;
27428;SDS011;14881;48.092;11.574;2023-07-29T04:53:13;4.50;;;3.10;;
27428;SDS011;14881;48.092;11.574;2023-07-29T04:55:41;3.67;;;3.00;;
27428;SDS011;14881;48.092;11.574;2023-07-29T04:58:08;3.60;;;3.00;;
27428;SDS011;14881;48.092;11.574;2023-07-29T05:00:34;3.25;;;2.95;;
27428;SDS011;14881;48.092;11.574;2023-07-29T05:03:01;3.53;;;3.20;;
27428;SDS011;14881;48.092;11.574;2023-07-29T05:05:28;3.55;;;2.85;;
27428;SDS011;14881;48.092;11.574;2023-07-29T05:07:54;3.63;;;2.78;;
27428;SDS011;14881;48.092;11.574;2023-07-29T05:10:20;3.00;;;2.70;;
27428;SDS011;14881;48.092;11.574;2023-07-29T05:12:47;4.28;;;2.58;;
27428;SDS011;14881;48.092;11.574;2023-07-29T05:15:13;3.28;;;2.53;;
27428;SDS011;14881;48.092;11.574;2023-07-29T05:17:40;5.53;;;2.55;;
27428;SDS011;14881;48.092;11.574;2023-07-29T05:20:07;3.42;;;2.30;;
27428;SDS011;14881;48.092;11.574;2023-07-29T05:22:34;4.35;;;2.63;;
27428;SDS011;14881;48.092;11.574;2023-07-29T05:25:01;2.50;;;2.03;;
27428;SDS011;14881;48.092;11.574;2023-07-29T05:27:27;2.50;;;2.30;;
27428;SDS011;14881;48.092;11.574;2023-07-29T05:29:53;2.50;;;2.30;;
27428;SDS011;14881;48.092;11.574;2023-07-29T05:32:20;4.78;;;2.55;;
27428;SDS011;14881;48.092;11.574;2023-07-29T05:34:46;2.25;;;2.05;;
27428;SDS011;14881;48.092;11.574;2023-07-29T05:37:13;2.88;;;2.40;;
27428;SDS011;14881;48.092;11.574;2023-07-29T05:39:40;2.20;;;2.00;;
27428;SDS011;14881;48.092;11.574;2023-07-29T05:42:06;1.98;;;1.88;;
27428;SDS011;14881;48.092;11.574;2023-07-29T05:44:33;7.28;;;2.05;;
27428;SDS011;14881;48.092;11.574;2023-07-29T05:47:00;2.50;;;2.25;;
27428;SDS011;14881;48.092;11.574;2023-07-29T05:49:26;2.45;;;2.20;;
27428;SDS011;14881;48.092;11.574;2023-07-29T05:51:52;2.90;;;2.03;;
27428;SDS011;14881;48.092;11.574;2023-07-29T05:54:19;6.18;;;2.10;;
27428;SDS011;14881;48.092;11.574;2023-07-29T05:56:46;2.17;;;2.08;;
27428;SDS011;14881;48.092;11.574;2023-07-29T05:59:13;3.13;;;1.73;;
27428;SDS011;14881;48.092;11.574;2023-07-29T06:01:39;3.42;;;2.10;;
27428;SDS011;14881;48.092;11.574;2023-07-29T06:04:05;2.50;;;2.30;;
27428;SDS011;14881;48.092;11.574;2023-07-29T06:06:32;4.82;;;2.67;;
27428;SDS011;14881;48.092;11.574;2023-07-29T06:08:58;2.70;;;2.17;;
27428;SDS011;14881;48.092;11.574;2023-07-29T06:11:25;2.38;;;1.85;;
27428;SDS011;14881;48.092;11.574;2023-07-29T06:13:52;4.82;;;2.90;;
27428;SDS011;14881;48.092;11.574;2023-07-29T06:16:18;4.18;;;2.78;;
27428;SDS011;14881;48.092;11.574;2023-07-29T06:18:45;5.47;;;2.97;;
27428;SDS011;14881;48.092;11.574;2023-07-29T06:21:11;4.57;;;2.80;;
27428;SDS011;14881;48.092;11.574;2023-07-29T06:23:42;4.68;;;2.88;;
27428;SDS011;14881;48.092;11.574;2023-07-29T06:26:08;3.03;;;2.60;;
27428;SDS011;14881;48.092;11.574;2023-07-29T06:28:35;3.25;;;2.88;;
27428;SDS011;14881;48.092;11.574;2023-07-29T06:31:02;3.95;;;2.63;;
27428;SDS011;14881;48.092;11.574;2023-07-29T06:33:28;3.10;;;2.80;;
27428;SDS011;14881;48.092;11.574;2023-07-29T06:35:55;3.47;;;2.70;;
27428;SDS011;14881;48.092;11.574;2023-07-29T06:38:21;3.05;;;2.72;;
27428;SDS011;14881;48.092;11.574;2023-07-29T06:40:48;2.92;;;2.63;;
27428;SDS011;14881;48.092;11.574;2023-07-29T06:43:14;2.88;;;2.38;;
27428;SDS011;14881;48.092;11.574;2023-07-29T06:45:41;3.63;;;2.97;;
27428;SDS011;14881;48.092;11.574;2023-07-29T06:48:08;3.30;;;2.53;;
27428;SDS011;14881;48.092;11.574;2023-07-29T06:50:34;2.90;;;2.40;;
27428;SDS011;14881;48.092;11.574;2023-07-29T06:53:00;4.07;;;2.60;;
27428;SDS011;14881;48.092;11.574;2023-07-29T06:55:27;3.03;;;2.72;;
27428;SDS011;14881;48.092;11.574;2023-07-29T06:57:53;5.82;;;2.67;;
27428;SDS011;14881;48.092;11.574;2023-07-29T07:00:20;3.22;;;2.63;;
27428;SDS011;14881;48.092;11.574;2023-07-29T07:02:46;4.60;;;3.58;;
27428;SDS011;14881;48.092;11.574;2023-07-29T07:05:13;4.22;;;3.15;;
27428;SDS011;14881;48.092;11.574;2023-07-29T07:07:40;5.32;;;3.30;;
27428;SDS011;14881;48.092;11.574;2023-07-29T07:10:06;3.75;;;2.90;;
27428;SDS011;14881;48.092;11.574;2023-07-29T07:12:33;4.55;;;3.50;;
27428;SDS011;14881;48.092;11.574;2023-07-29T07:14:59;3.25;;;2.92;;
27428;SDS011;14881;48.092;11.574;2023-07-29T07:17:26;4.68;;;3.33;;
27428;SDS011;14881;48.092;11.574;2023-07-29T07:19:52;5.63;;;3.25;;
27428;SDS011;14881;48.092;11.574;2023-07-29T07:22:19;6.13;;;3.67;;
27428;SDS011;14881;48.092;11.574;2023-07-29T07:24:46;3.90;;;3.47;;
27428;SDS011;14881;48.092;11.574;2023-07-29T07:27:12;4.03;;;3.00;;
27428;SDS011;14881;48.092;11.574;2023-07-29T07:29:38;4.35;;;3.75;;
27428;SDS011;14881;48.092;11.574;2023-07-29T07:32:05;6.25;;;3.75;;
27428;SDS011;14881;48.092;11.574;2023-07-29T07:34:32;9.73;;;3.83;;
27428;SDS011;14881;48.092;11.574;2023-07-29T07:36:58;4.43;;;3.80;;
27428;SDS011;14881;48.092;11.574;2023-07-29T07:39:26;4.28;;;3.70;;
27428;SDS011;14881;48.092;11.574;2023-07-29T07:41:53;5.72;;;3.55;;
27428;SDS011;14881;48.092;11.574;2023-07-29T07:44:19;3.70;;;3.30;;
27428;SDS011;14881;48.092;11.574;2023-07-29T07:46:46;6.13;;;3.67;;
27428;SDS011;14881;48.092;11.574;2023-07-29T07:49:12;4.22;;;3.60;;
27428;SDS011;14881;48.092;11.574;2023-07-29T07:51:40;7.35;;;4.05;;
27428;SDS011;14881;48.092;11.574;2023-07-29T07:54:06;4.30;;;3.85;;
27428;SDS011;14881;48.092;11.574;2023-07-29T07:56:33;4.65;;;3.67;;
27428;SDS011;14881;48.092;11.574;2023-07-29T07:59:00;3.88;;;3.50;;
27428;SDS011;14881;48.092;11.574;2023-07-29T08:01:26;3.90;;;3.60;;
27428;SDS011;14881;48.092;11.574;2023-07-29T08:03:53;4.40;;;3.17;;
27428;SDS011;14881;48.092;11.574;2023-07-29T08:06:19;3.53;;;3.22;;
27428;SDS011;14881;48.092;11.574;2023-07-29T08:08:45;5.38;;;3.35;;
27428;SDS011;14881;48.092;11.574;2023-07-29T08:11:12;3.70;;;3.40;;
27428;SDS011;14881;48.092;11.574;2023-07-29T08:13:39;3.90;;;3.35;;
27428;SDS011;14881;48.092;11.574;2023-07-29T08:16:05;4.13;;;3.65;;
27428;SDS011;14881;48.092;11.574;2023-07-29T08:18:32;3.40;;;3.10;;
27428;SDS011;14881;48.092;11.574;2023-07-29T08:20:59;4.50;;;3.80;;
27428;SDS011;14881;48.092;11.574;2023-07-29T08:23:29;4.65;;;3.42;;
27428;SDS011;14881;48.092;11.574;2023-07-29T08:25:56;5.38;;;3.40;;
27428;SDS011;14881;48.092;11.574;2023-07-29T08:28:27;4.15;;;3.40;;
27428;SDS011;14881;48.092;11.574;2023-07-29T08:30:54;4.15;;;3.75;;
27428;SDS011;14881;48.092;11.574;2023-07-29T08:33:20;5.57;;;3.88;;
27428;SDS011;14881;48.092;11.574;2023-07-29T08:35:47;4.25;;;3.65;;
27428;SDS011;14881;48.092;11.574;2023-07-29T08:38:13;5.38;;;3.90;;
27428;SDS011;14881;48.092;11.574;2023-07-29T08:40:42;3.78;;;3.40;;
27428;SDS011;14881;48.092;11.574;2023-07-29T08:43:10;4.43;;;3.60;;
27428;SDS011;14881;48.092;11.574;2023-07-29T08:45:40;3.55;;;3.25;;
27428;SDS011;14881;48.092;11.574;2023-07-29T08:48:08;4.00;;;3.33;;
27428;SDS011;14881;48.092;11.574;2023-07-29T08:50:36;3.65;;;3.15;;
27428;SDS011;14881;48.092;11.574;2023-07-29T08:53:03;5.15;;;3.30;;
27428;SDS011;14881;48.092;11.574;2023-07-29T08:55:31;3.50;;;3.15;;
27428;SDS011;14881;48.092;11.574;2023-07-29T08:57:58;3.50;;;3.20;;
27428;SDS011;14881;48.092;11.574;2023-07-29T09:00:26;3.78;;;3.15;;
27428;SDS011;14881;48.092;11.574;2023-07-29T09:02:53;4.03;;;3.30;;
27428;SDS011;14881;48.092;11.574;2023-07-29T09:05:21;5.70;;;3.13;;
27428;SDS011;14881;48.092;11.574;2023-07-29T09:07:47;3.15;;;2.85;;
27428;SDS011;14881;48.092;11.574;2023-07-29T09:10:21;3.70;;;3.35;;
27428;SDS011;14881;48.092;11.574;2023-07-29T09:12:48;4.30;;;3.50;;
27428;SDS011;14881;48.092;11.574;2023-07-29T09:15:25;3.28;;;2.97;;
27428;SDS011;14881;48.092;11.574;2023-07-29T09:17:53;5.03;;;3.10;;
27428;SDS011;14881;48.092;11.574;2023-07-29T09:20:23;5.00;;;3.30;;
27428;SDS011;14881;48.092;11.574;2023-07-29T09:22:51;5.80;;;3.45;;
27428;SDS011;14881;48.092;11.574;2023-07-29T09:25:21;3.60;;;3.30;;
27428;SDS011;14881;48.092;11.574;2023-07-29T09:27:49;5.43;;;3.50;;
27428;SDS011;14881;48.092;11.574;2023-07-29T09:30:16;4.45;;;3.08;;
27428;SDS011;14881;48.092;11.574;2023-07-29T09:32:43;3.78;;;3.30;;
27428;SDS011;14881;48.092;11.574;2023-07-29T09:35:10;3.15;;;2.65;;
27428;SDS011;14881;48.092;11.574;2023-07-29T09:37:38;4.75;;;3.40;;
27428;SDS011;14881;48.092;11.574;2023-07-29T09:40:05;3.55;;;3.17;;
27428;SDS011;14881;48.092;11.574;2023-07-29T09:42:32;4.80;;;3.80;;
27428;SDS011;14881;48.092;11.574;2023-07-29T09:44:59;6.38;;;3.50;;
27428;SDS011;14881;48.092;11.574;2023-07-29T09:47:26;5.35;;;3.20;;
27428;SDS011;14881;48.092;11.574;2023-07-29T09:49:52;3.67;;;3.30;;
27428;SDS011;14881;48.092;11.574;2023-07-29T09:52:19;3.70;;;3.28;;
27428;SDS011;14881;48.092;11.574;2023-07-29T09:54:48;3.65;;;3.35;;
27428;SDS011;14881;48.092;11.574;2023-07-29T09:57:14;3.58;;;3.22;;
27428;SDS011;14881;48.092;11.574;2023-07-29T09:59:44;3.97;;;3.03;;
27428;SDS011;14881;48.092;11.574;2023-07-29T10:02:19;3.60;;;3.30;;
27428;SDS011;14881;48.092;11.574;2023-07-29T10:04:50;5.53;;;3.72;;
27428;SDS011;14881;48.092;11.574;2023-07-29T10:07:17;5.25;;;3.35;;
27428;SDS011;14881;48.092;11.574;2023-07-29T10:09:45;5.75;;;3.30;;
27428;SDS011;14881;48.092;11.574;2023-07-29T10:12:13;4.70;;;3.65;;
27428;SDS011;14881;48.092;11.574;2023-07-29T10:14:42;6.00;;;3.40;;
27428;SDS011;14881;48.092;11.574;2023-07-29T10:17:12;3.63;;;3.33;;
27428;SDS011;14881;48.092;11.574;2023-07-29T10:19:41;3.60;;;3.30;;
27428;SDS011;14881;48.092;11.574;2023-07-29T10:22:09;3.50;;;3.10;;
27428;SDS011;14881;48.092;11.574;2023-07-29T10:24:37;4.70;;;3.53;;
27428;SDS011;14881;48.092;11.574;2023-07-29T10:27:08;4.32;;;3.45;;
27428;SDS011;14881;48.092;11.574;2023-07-29T10:29:41;5.50;;;3.38;;
27428;SDS011;14881;48.092;11.574;2023-07-29T10:32:09;3.78;;;3.42;;
27428;SDS011;14881;48.092;11.574;2023-07-29T10:34:37;5.07;;;3.50;;
27428;SDS011;14881;48.092;11.574;2023-07-29T10:37:05;4.85;;;3.67;;
27428;SDS011;14881;48.092;11.574;2023-07-29T10:39:37;3.78;;;3.38;;
27428;SDS011;14881;48.092;11.574;2023-07-29T10:42:05;4.13;;;3.60;;
27428;SDS011;14881;48.092;11.574;2023-07-29T10:44:45;3.58;;;3.22;;
27428;SDS011;14881;48.092;11.574;2023-07-29T10:47:14;4.82;;;3.33;;
27428;SDS011;14881;48.092;11.574;2023-07-29T10:49:42;4.70;;;3.67;;
27428;SDS011;14881;48.092;11.574;2023-07-29T10:52:10;3.65;;;3.30;;
27428;SDS011;14881;48.092;11.574;2023-07-29T10:54:41;3.60;;;3.30;;
27428;SDS011;14881;48.092;11.574;2023-07-29T10:57:08;3.53;;;3.08;;
27428;SDS011;14881;48.092;11.574;2023-07-29T10:59:39;3.75;;;3.38;;
27428;SDS011;14881;48.092;11.574;2023-07-29T11:02:12;6.30;;;3.60;;
27428;SDS011;14881;48.092;11.574;2023-07-29T11:04:46;5.03;;;3.67;;
27428;SDS011;14881;48.092;11.574;2023-07-29T11:07:21;6.03;;;3.28;;
27428;SDS011;14881;48.092;11.574;2023-07-29T11:09:55;3.80;;;3.40;;
27428;SDS011;14881;48.092;11.574;2023-07-29T11:12:38;4.95;;;3.45;;
27428;SDS011;14881;48.092;11.574;2023-07-29T11:15:17;3.80;;;3.47;;
27428;SDS011;14881;48.092;11.574;2023-07-29T11:17:46;4.00;;;3.60;;
27428;SDS011;14881;48.092;11.574;2023-07-29T11:20:14;3.78;;;3.35;;
27428;SDS011;14881;48.092;11.574;2023-07-29T11:22:41;3.80;;;3.50;;
27428;SDS011;14881;48.092;11.574;2023-07-29T11:25:08;5.57;;;3.60;;
27428;SDS011;14881;48.092;11.574;2023-07-29T11:27:36;4.47;;;3.88;;
27428;SDS011;14881;48.092;11.574;2023-07-29T11:30:03;3.45;;;3.15;;
27428;SDS011;14881;48.092;11.574;2023-07-29T11:32:31;3.95;;;2.58;;
27428;SDS011;14881;48.092;11.574;2023-07-29T11:35:01;4.70;;;2.30;;
27428;SDS011;14881;48.092;11.574;2023-07-29T11:37:29;3.47;;;2.47;;
27428;SDS011;14881;48.092;11.574;2023-07-29T11:39:55;3.38;;;2.35;;
27428;SDS011;14881;48.092;11.574;2023-07-29T11:42:22;3.15;;;2.10;;
27428;SDS011;14881;48.092;11.574;2023-07-29T11:44:48;4.32;;;2.35;;
27428;SDS011;14881;48.092;11.574;2023-07-29T11:47:14;2.33;;;2.15;;
27428;SDS011;14881;48.092;11.574;2023-07-29T11:49:41;3.78;;;2.53;;
27428;SDS011;14881;48.092;11.574;2023-07-29T11:52:08;2.40;;;2.20;;
27428;SDS011;14881;48.092;11.574;2023-07-29T11:54:35;2.35;;;2.05;;
27428;SDS011;14881;48.092;11.574;2023-07-29T11:57:03;3.05;;;2.42;;
27428;SDS011;14881;48.092;11.574;2023-07-29T11:59:30;4.43;;;2.72;;
27428;SDS011;14881;48.092;11.574;2023-07-29T12:01:58;6.00;;;2.90;;
27428;SDS011;14881;48.092;11.574;2023-07-29T12:04:26;2.83;;;2.60;;
27428;SDS011;14881;48.092;11.574;2023-07-29T12:06:53;2.50;;;2.30;;
27428;SDS011;14881;48.092;11.574;2023-07-29T12:09:20;3.60;;;2.47;;
27428;SDS011;14881;48.092;11.574;2023-07-29T12:11:47;3.05;;;2.72;;
27428;SDS011;14881;48.092;11.574;2023-07-29T12:14:15;2.97;;;2.13;;
27428;SDS011;14881;48.092;11.574;2023-07-29T12:16:42;3.83;;;2.70;;
27428;SDS011;14881;48.092;11.574;2023-07-29T12:19:11;4.65;;;2.70;;
27428;SDS011;14881;48.092;11.574;2023-07-29T12:21:38;3.80;;;2.65;;
27428;SDS011;14881;48.092;11.574;2023-07-29T12:24:04;2.65;;;2.45;;
27428;SDS011;14881;48.092;11.574;2023-07-29T12:26:32;7.70;;;2.65;;
27428;SDS011;14881;48.092;11.574;2023-07-29T12:28:59;3.65;;;2.80;;
27428;SDS011;14881;48.092;11.574;2023-07-29T12:31:30;3.03;;;2.70;;
27428;SDS011;14881;48.092;11.574;2023-07-29T12:33:58;4.18;;;2.70;;
27428;SDS011;14881;48.092;11.574;2023-07-29T12:36:27;3.03;;;2.60;;
27428;SDS011;14881;48.092;11.574;2023-07-29T12:39:05;4.03;;;2.45;;
27428;SDS011;14881;48.092;11.574;2023-07-29T12:41:32;3.15;;;2.85;;
27428;SDS011;14881;48.092;11.574;2023-07-29T12:43:59;4.03;;;3.03;;
27428;SDS011;14881;48.092;11.574;2023-07-29T12:46:28;4.50;;;2.90;;
27428;SDS011;14881;48.092;11.574;2023-07-29T12:48:55;4.82;;;2.85;;
27428;SDS011;14881;48.092;11.574;2023-07-29T12:51:21;3.47;;;3.00;;
27428;SDS011;14881;48.092;11.574;2023-07-29T12:53:48;3.38;;;2.95;;
27428;SDS011;14881;48.092;11.574;2023-07-29T12:56:14;3.53;;;3.03;;
27428;SDS011;14881;48.092;11.574;2023-07-29T12:58:41;4.38;;;3.58;;
27428;SDS011;14881;48.092;11.574;2023-07-29T13:01:07;3.75;;;3.20;;
27428;SDS011;14881;48.092;11.574;2023-07-29T13:03:34;3.70;;;3.30;;
27428;SDS011;14881;48.092;11.574;2023-07-29T13:06:01;3.90;;;3.50;;
27428;SDS011;14881;48.092;11.574;2023-07-29T13:08:29;3.83;;;3.30;;
27428;SDS011;14881;48.092;11.574;2023-07-29T13:10:55;4.78;;;3.40;;
27428;SDS011;14881;48.092;11.574;2023-07-29T13:13:22;3.67;;;3.33;;
27428;SDS011;14881;48.092;11.574;2023-07-29T13:15:49;5.57;;;3.90;;
27428;SDS011;14881;48.092;11.574;2023-07-29T13:18:15;7.30;;;4.07;;
27428;SDS011;14881;48.092;11.574;2023-07-29T13:20:42;9.40;;;4.80;;
27428;SDS011;14881;48.092;11.574;2023-07-29T13:23:08;5.00;;;4.45;;
27428;SDS011;14881;48.092;11.574;2023-07-29T13:25:35;4.90;;;4.40;;
27428;SDS011;14881;48.092;11.574;2023-07-29T13:28:01;6.60;;;5.30;;
27428;SDS011;14881;48.092;11.574;2023-07-29T13:30:27;5.65;;;5.00;;
27428;SDS011;14881;48.092;11.574;2023-07-29T13:32:55;7.47;;;4.20;;
27428;SDS011;14881;48.092;11.574;2023-07-29T13:35:22;6.72;;;4.68;;
27428;SDS011;14881;48.092;11.574;2023-07-29T13:37:48;6.45;;;4.88;;
27428;SDS011;14881;48.092;11.574;2023-07-29T13:40:14;6.50;;;4.18;;
27428;SDS011;14881;48.092;11.574;2023-07-29T13:42:41;7.40;;;4.93;;
27428;SDS011;14881;48.092;11.574;2023-07-29T13:45:08;6.47;;;5.03;;
27428;SDS011;14881;48.092;11.574;2023-07-29T13:47:35;7.88;;;5.18;;
27428;SDS011;14881;48.092;11.574;2023-07-29T13:50:02;7.50;;;5.20;;
27428;SDS011;14881;48.092;11.574;2023-07-29T13:52:29;7.72;;;6.43;;
27428;SDS011;14881;48.092;11.574;2023-07-29T13:54:55;7.78;;;6.20;;
27428;SDS011;14881;48.092;11.574;2023-07-29T13:57:22;7.45;;;6.35;;
27428;SDS011;14881;48.092;11.574;2023-07-29T13:59:48;7.63;;;6.47;;
27428;SDS011;14881;48.092;11.574;2023-07-29T14:02:14;9.70;;;6.22;;
27428;SDS011;14881;48.092;11.574;2023-07-29T14:04:41;7.75;;;5.65;;
27428;SDS011;14881;48.092;11.574;2023-07-29T14:07:08;8.77;;;5.78;;
27428;SDS011;14881;48.092;11.574;2023-07-29T14:09:34;7.45;;;6.75;;
27428;SDS011;14881;48.092;11.574;2023-07-29T14:12:01;6.53;;;5.82;;
27428;SDS011;14881;48.092;11.574;2023-07-29T14:14:27;6.30;;;5.50;;
27428;SDS011;14881;48.092;11.574;2023-07-29T14:16:53;6.25;;;5.50;;
27428;SDS011;14881;48.092;11.574;2023-07-29T14:19:20;5.30;;;4.25;;
27428;SDS011;14881;48.092;11.574;2023-07-29T14:21:47;5.43;;;4.80;;
27428;SDS011;14881;48.092;11.574;2023-07-29T14:24:14;7.85;;;4.57;;
27428;SDS011;14881;48.092;11.574;2023-07-29T14:26:42;7.38;;;4.60;;
27428;SDS011;14881;48.092;11.574;2023-07-29T14:29:09;6.00;;;4.68;;
27428;SDS011;14881;48.092;11.574;2023-07-29T14:31:35;5.97;;;4.68;;
27428;SDS011;14881;48.092;11.574;2023-07-29T14:34:01;6.30;;;4.30;;